sensor_id;sensor_type;location;lat;lon;timestamp;P1;durP1;ratioP1;P2;durP2;ratioP2
5754;SDS011;2902;42.130;24.732;2023-02-01T00:02:10;3.73;;;3.43;;
5754;SDS011;2902;42.130;24.732;2023-02-01T00:04:37;4.43;;;4.13;;
5754;SDS011;2902;42.130;24.732;2023-02-01T00:07:04;3.97;;;3.77;;
5754;SDS011;2902;42.130;24.732;2023-02-01T00:09:31;4.00;;;3.80;;
5754;SDS011;2902;42.130;24.732;2023-02-01T00:11:58;3.67;;;3.47;;
5754;SDS011;2902;42.130;24.732;2023-02-01T00:14:27;3.40;;;3.20;;
5754;SDS011;2902;42.130;24.732;2023-02-01T00:16:53;3.50;;;3.30;;
5754;SDS011;2902;42.130;24.732;2023-02-01T00:19:22;3.87;;;3.67;;
5754;SDS011;2902;42.130;24.732;2023-02-01T00:21:48;3.73;;;3.57;;
5754;SDS011;2902;42.130;24.732;2023-02-01T00:24:15;3.93;;;3.73;;
5754;SDS011;2902;42.130;24.732;2023-02-01T00:26:42;3.50;;;3.33;;
5754;SDS011;2902;42.130;24.732;2023-02-01T00:29:11;3.83;;;3.63;;
5754;SDS011;2902;42.130;24.732;2023-02-01T00:31:39;4.00;;;3.70;;
5754;SDS011;2902;42.130;24.732;2023-02-01T00:34:06;4.33;;;3.77;;
5754;SDS011;2902;42.130;24.732;2023-02-01T00:36:36;3.57;;;3.37;;
5754;SDS011;2902;42.130;24.732;2023-02-01T00:39:03;3.93;;;3.73;;
5754;SDS011;2902;42.130;24.732;2023-02-01T00:41:29;3.67;;;3.37;;
5754;SDS011;2902;42.130;24.732;2023-02-01T00:43:56;3.50;;;3.30;;
5754;SDS011;2902;42.130;24.732;2023-02-01T00:46:23;3.97;;;3.67;;
5754;SDS011;2902;42.130;24.732;2023-02-01T00:48:50;3.63;;;3.33;;
5754;SDS011;2902;42.130;24.732;2023-02-01T00:51:18;3.63;;;3.43;;
5754;SDS011;2902;42.130;24.732;2023-02-01T00:53:47;3.43;;;3.23;;
5754;SDS011;2902;42.130;24.732;2023-02-01T00:56:14;3.83;;;3.53;;
5754;SDS011;2902;42.130;24.732;2023-02-01T00:58:41;3.20;;;3.10;;
5754;SDS011;2902;42.130;24.732;2023-02-01T01:01:10;3.13;;;2.97;;
5754;SDS011;2902;42.130;24.732;2023-02-01T01:03:38;3.50;;;3.30;;
5754;SDS011;2902;42.130;24.732;2023-02-01T01:06:07;4.43;;;2.93;;
5754;SDS011;2902;42.130;24.732;2023-02-01T01:08:35;3.07;;;2.87;;
5754;SDS011;2902;42.130;24.732;2023-02-01T01:11:07;3.97;;;3.17;;
5754;SDS011;2902;42.130;24.732;2023-02-01T01:13:35;3.73;;;3.53;;
5754;SDS011;2902;42.130;24.732;2023-02-01T01:16:02;3.80;;;3.50;;
5754;SDS011;2902;42.130;24.732;2023-02-01T01:18:30;3.80;;;3.60;;
5754;SDS011;2902;42.130;24.732;2023-02-01T01:20:58;3.57;;;3.37;;
5754;SDS011;2902;42.130;24.732;2023-02-01T01:23:25;3.70;;;3.50;;
5754;SDS011;2902;42.130;24.732;2023-02-01T01:25:52;3.60;;;3.30;;
5754;SDS011;2902;42.130;24.732;2023-02-01T01:28:20;3.40;;;3.20;;
5754;SDS011;2902;42.130;24.732;2023-02-01T01:30:47;3.23;;;3.03;;
5754;SDS011;2902;42.130;24.732;2023-02-01T01:33:14;3.53;;;3.33;;
5754;SDS011;2902;42.130;24.732;2023-02-01T01:35:40;3.60;;;3.40;;
5754;SDS011;2902;42.130;24.732;2023-02-01T01:38:08;3.77;;;3.53;;
5754;SDS011;2902;42.130;24.732;2023-02-01T01:40:36;3.77;;;3.47;;
5754;SDS011;2902;42.130;24.732;2023-02-01T01:43:03;3.30;;;3.20;;
5754;SDS011;2902;42.130;24.732;2023-02-01T01:45:40;3.97;;;3.67;;
5754;SDS011;2902;42.130;24.732;2023-02-01T01:48:08;3.90;;;3.70;;
5754;SDS011;2902;42.130;24.732;2023-02-01T01:50:40;3.53;;;3.33;;
5754;SDS011;2902;42.130;24.732;2023-02-01T01:53:13;3.87;;;3.63;;
5754;SDS011;2902;42.130;24.732;2023-02-01T01:55:44;3.73;;;3.50;;
5754;SDS011;2902;42.130;24.732;2023-02-01T01:58:14;4.17;;;3.90;;
5754;SDS011;2902;42.130;24.732;2023-02-01T02:00:46;4.23;;;4.03;;
5754;SDS011;2902;42.130;24.732;2023-02-01T02:03:15;4.70;;;4.30;;
5754;SDS011;2902;42.130;24.732;2023-02-01T02:05:45;4.13;;;3.73;;
5754;SDS011;2902;42.130;24.732;2023-02-01T02:08:14;10.73;;;3.40;;
5754;SDS011;2902;42.130;24.732;2023-02-01T02:10:41;3.93;;;3.63;;
5754;SDS011;2902;42.130;24.732;2023-02-01T02:13:27;3.60;;;3.30;;
5754;SDS011;2902;42.130;24.732;2023-02-01T02:16:08;3.07;;;2.87;;
5754;SDS011;2902;42.130;24.732;2023-02-01T02:19:06;3.53;;;3.33;;
5754;SDS011;2902;42.130;24.732;2023-02-01T02:21:55;3.53;;;3.37;;
5754;SDS011;2902;42.130;24.732;2023-02-01T02:24:44;3.27;;;3.07;;
5754;SDS011;2902;42.130;24.732;2023-02-01T02:27:34;3.57;;;3.37;;
5754;SDS011;2902;42.130;24.732;2023-02-01T02:33:42;3.97;;;3.60;;
5754;SDS011;2902;42.130;24.732;2023-02-01T02:36:19;4.03;;;3.77;;
5754;SDS011;2902;42.130;24.732;2023-02-01T02:39:01;4.30;;;3.97;;
5754;SDS011;2902;42.130;24.732;2023-02-01T02:41:35;4.37;;;4.07;;
5754;SDS011;2902;42.130;24.732;2023-02-01T02:44:31;3.90;;;3.47;;
5754;SDS011;2902;42.130;24.732;2023-02-01T02:47:23;3.77;;;3.57;;
5754;SDS011;2902;42.130;24.732;2023-02-01T02:50:07;4.00;;;3.77;;
5754;SDS011;2902;42.130;24.732;2023-02-01T02:53:02;3.40;;;3.27;;
5754;SDS011;2902;42.130;24.732;2023-02-01T02:55:51;4.33;;;3.43;;
5754;SDS011;2902;42.130;24.732;2023-02-01T02:58:36;2.87;;;2.77;;
5754;SDS011;2902;42.130;24.732;2023-02-01T03:01:20;2.97;;;2.77;;
5754;SDS011;2902;42.130;24.732;2023-02-01T03:04:04;3.40;;;3.20;;
5754;SDS011;2902;42.130;24.732;2023-02-01T03:06:35;3.20;;;3.10;;
5754;SDS011;2902;42.130;24.732;2023-02-01T03:09:04;3.90;;;3.70;;
5754;SDS011;2902;42.130;24.732;2023-02-01T03:11:36;2.93;;;2.83;;
5754;SDS011;2902;42.130;24.732;2023-02-01T03:14:21;3.87;;;3.67;;
5754;SDS011;2902;42.130;24.732;2023-02-01T03:16:53;3.97;;;3.67;;
5754;SDS011;2902;42.130;24.732;2023-02-01T03:19:31;3.80;;;3.60;;
5754;SDS011;2902;42.130;24.732;2023-02-01T03:22:02;3.53;;;3.33;;
5754;SDS011;2902;42.130;24.732;2023-02-01T03:24:32;4.17;;;3.97;;
5754;SDS011;2902;42.130;24.732;2023-02-01T03:27:04;4.23;;;4.03;;
5754;SDS011;2902;42.130;24.732;2023-02-01T03:29:36;4.03;;;3.83;;
5754;SDS011;2902;42.130;24.732;2023-02-01T03:32:08;4.13;;;3.90;;
5754;SDS011;2902;42.130;24.732;2023-02-01T03:34:35;3.83;;;3.57;;
5754;SDS011;2902;42.130;24.732;2023-02-01T03:37:04;4.40;;;4.20;;
5754;SDS011;2902;42.130;24.732;2023-02-01T03:39:36;4.50;;;4.30;;
5754;SDS011;2902;42.130;24.732;2023-02-01T03:42:09;4.20;;;3.90;;
5754;SDS011;2902;42.130;24.732;2023-02-01T03:44:41;4.33;;;4.13;;
5754;SDS011;2902;42.130;24.732;2023-02-01T03:47:16;3.57;;;3.47;;
5754;SDS011;2902;42.130;24.732;2023-02-01T03:49:48;4.60;;;4.30;;
5754;SDS011;2902;42.130;24.732;2023-02-01T03:52:20;4.60;;;4.30;;
5754;SDS011;2902;42.130;24.732;2023-02-01T03:54:51;4.37;;;4.03;;
5754;SDS011;2902;42.130;24.732;2023-02-01T03:57:20;5.33;;;4.90;;
5754;SDS011;2902;42.130;24.732;2023-02-01T03:59:51;6.27;;;5.67;;
5754;SDS011;2902;42.130;24.732;2023-02-01T04:02:18;5.23;;;4.90;;
5754;SDS011;2902;42.130;24.732;2023-02-01T04:04:45;7.90;;;7.20;;
5754;SDS011;2902;42.130;24.732;2023-02-01T04:07:11;8.47;;;6.97;;
5754;SDS011;2902;42.130;24.732;2023-02-01T04:09:39;6.50;;;5.87;;
5754;SDS011;2902;42.130;24.732;2023-02-01T04:12:07;7.07;;;6.57;;
5754;SDS011;2902;42.130;24.732;2023-02-01T04:14:33;6.67;;;6.17;;
5754;SDS011;2902;42.130;24.732;2023-02-01T04:17:00;8.60;;;7.87;;
5754;SDS011;2902;42.130;24.732;2023-02-01T04:19:27;7.33;;;6.83;;
5754;SDS011;2902;42.130;24.732;2023-02-01T04:21:54;8.47;;;7.67;;
5754;SDS011;2902;42.130;24.732;2023-02-01T04:24:20;6.90;;;6.47;;
5754;SDS011;2902;42.130;24.732;2023-02-01T04:26:48;6.53;;;5.97;;
5754;SDS011;2902;42.130;24.732;2023-02-01T04:29:15;7.00;;;6.57;;
5754;SDS011;2902;42.130;24.732;2023-02-01T04:31:42;6.07;;;5.60;;
5754;SDS011;2902;42.130;24.732;2023-02-01T04:34:08;5.67;;;5.27;;
5754;SDS011;2902;42.130;24.732;2023-02-01T04:36:35;5.87;;;5.47;;
5754;SDS011;2902;42.130;24.732;2023-02-01T04:39:02;6.20;;;5.83;;
5754;SDS011;2902;42.130;24.732;2023-02-01T04:41:29;6.20;;;5.77;;
5754;SDS011;2902;42.130;24.732;2023-02-01T04:43:57;5.43;;;4.87;;
5754;SDS011;2902;42.130;24.732;2023-02-01T04:46:24;5.83;;;5.43;;
5754;SDS011;2902;42.130;24.732;2023-02-01T04:48:51;5.33;;;4.97;;
5754;SDS011;2902;42.130;24.732;2023-02-01T04:51:18;5.77;;;5.00;;
5754;SDS011;2902;42.130;24.732;2023-02-01T04:53:45;5.10;;;4.80;;
5754;SDS011;2902;42.130;24.732;2023-02-01T04:56:12;6.53;;;5.97;;
5754;SDS011;2902;42.130;24.732;2023-02-01T04:58:38;8.73;;;7.93;;
5754;SDS011;2902;42.130;24.732;2023-02-01T05:01:07;5.80;;;5.40;;
5754;SDS011;2902;42.130;24.732;2023-02-01T05:03:34;5.63;;;5.10;;
5754;SDS011;2902;42.130;24.732;2023-02-01T05:06:01;7.87;;;6.07;;
5754;SDS011;2902;42.130;24.732;2023-02-01T05:08:29;5.87;;;5.43;;
5754;SDS011;2902;42.130;24.732;2023-02-01T05:10:55;7.20;;;5.30;;
5754;SDS011;2902;42.130;24.732;2023-02-01T05:13:23;6.23;;;5.63;;
5754;SDS011;2902;42.130;24.732;2023-02-01T05:16:09;12.40;;;7.10;;
5754;SDS011;2902;42.130;24.732;2023-02-01T05:18:36;5.77;;;5.27;;
5754;SDS011;2902;42.130;24.732;2023-02-01T05:21:02;16.13;;;5.83;;
5754;SDS011;2902;42.130;24.732;2023-02-01T05:23:29;5.87;;;3.90;;
5754;SDS011;2902;42.130;24.732;2023-02-01T05:25:59;4.67;;;4.37;;
5754;SDS011;2902;42.130;24.732;2023-02-01T05:28:27;4.03;;;3.77;;
5754;SDS011;2902;42.130;24.732;2023-02-01T05:30:54;4.27;;;4.00;;
5754;SDS011;2902;42.130;24.732;2023-02-01T05:33:22;4.73;;;4.43;;
5754;SDS011;2902;42.130;24.732;2023-02-01T05:35:49;8.53;;;5.00;;
5754;SDS011;2902;42.130;24.732;2023-02-01T05:38:16;4.53;;;4.23;;
5754;SDS011;2902;42.130;24.732;2023-02-01T05:40:43;8.00;;;4.97;;
5754;SDS011;2902;42.130;24.732;2023-02-01T05:43:14;6.90;;;5.80;;
5754;SDS011;2902;42.130;24.732;2023-02-01T05:45:41;8.83;;;4.70;;
5754;SDS011;2902;42.130;24.732;2023-02-01T05:48:08;5.60;;;5.17;;
5754;SDS011;2902;42.130;24.732;2023-02-01T05:50:36;5.90;;;4.67;;
5754;SDS011;2902;42.130;24.732;2023-02-01T05:53:02;4.73;;;4.37;;
5754;SDS011;2902;42.130;24.732;2023-02-01T05:55:29;7.63;;;4.80;;
5754;SDS011;2902;42.130;24.732;2023-02-01T05:57:56;8.47;;;6.07;;
5754;SDS011;2902;42.130;24.732;2023-02-01T06:00:22;13.50;;;4.70;;
5754;SDS011;2902;42.130;24.732;2023-02-01T06:02:49;5.70;;;5.20;;
5754;SDS011;2902;42.130;24.732;2023-02-01T06:05:16;5.87;;;5.37;;
5754;SDS011;2902;42.130;24.732;2023-02-01T06:07:44;5.10;;;4.80;;
5754;SDS011;2902;42.130;24.732;2023-02-01T06:10:11;6.13;;;4.03;;
5754;SDS011;2902;42.130;24.732;2023-02-01T06:12:39;10.47;;;4.07;;
5754;SDS011;2902;42.130;24.732;2023-02-01T06:15:06;5.87;;;4.50;;
5754;SDS011;2902;42.130;24.732;2023-02-01T06:17:33;6.73;;;4.20;;
5754;SDS011;2902;42.130;24.732;2023-02-01T06:20:00;5.33;;;4.93;;
5754;SDS011;2902;42.130;24.732;2023-02-01T06:22:28;5.10;;;4.30;;
5754;SDS011;2902;42.130;24.732;2023-02-01T06:24:56;12.20;;;4.93;;
5754;SDS011;2902;42.130;24.732;2023-02-01T06:27:23;4.27;;;3.97;;
5754;SDS011;2902;42.130;24.732;2023-02-01T06:29:50;3.70;;;3.40;;
5754;SDS011;2902;42.130;24.732;2023-02-01T06:32:17;10.00;;;4.43;;
5754;SDS011;2902;42.130;24.732;2023-02-01T06:34:44;4.67;;;3.20;;
5754;SDS011;2902;42.130;24.732;2023-02-01T06:37:10;4.60;;;3.70;;
5754;SDS011;2902;42.130;24.732;2023-02-01T06:39:37;4.03;;;3.73;;
5754;SDS011;2902;42.130;24.732;2023-02-01T06:42:05;4.67;;;4.23;;
5754;SDS011;2902;42.130;24.732;2023-02-01T06:44:32;4.30;;;4.00;;
5754;SDS011;2902;42.130;24.732;2023-02-01T06:46:59;5.00;;;3.87;;
5754;SDS011;2902;42.130;24.732;2023-02-01T06:49:26;5.57;;;3.43;;
5754;SDS011;2902;42.130;24.732;2023-02-01T06:51:52;5.87;;;3.60;;
5754;SDS011;2902;42.130;24.732;2023-02-01T06:54:19;3.60;;;3.40;;
5754;SDS011;2902;42.130;24.732;2023-02-01T06:56:46;15.23;;;3.97;;
5754;SDS011;2902;42.130;24.732;2023-02-01T06:59:14;6.30;;;3.40;;
5754;SDS011;2902;42.130;24.732;2023-02-01T07:01:40;3.83;;;3.63;;
5754;SDS011;2902;42.130;24.732;2023-02-01T07:04:08;9.00;;;5.30;;
5754;SDS011;2902;42.130;24.732;2023-02-01T07:06:36;17.27;;;5.30;;
5754;SDS011;2902;42.130;24.732;2023-02-01T07:09:03;8.13;;;4.00;;
5754;SDS011;2902;42.130;24.732;2023-02-01T07:11:30;17.00;;;4.57;;
5754;SDS011;2902;42.130;24.732;2023-02-01T07:13:57;4.70;;;4.30;;
5754;SDS011;2902;42.130;24.732;2023-02-01T07:16:26;4.03;;;3.83;;
5754;SDS011;2902;42.130;24.732;2023-02-01T07:18:54;12.50;;;4.03;;
5754;SDS011;2902;42.130;24.732;2023-02-01T07:21:20;10.13;;;3.87;;
5754;SDS011;2902;42.130;24.732;2023-02-01T07:23:47;6.23;;;4.83;;
5754;SDS011;2902;42.130;24.732;2023-02-01T07:26:14;4.50;;;4.10;;
5754;SDS011;2902;42.130;24.732;2023-02-01T07:28:41;5.70;;;4.87;;
5754;SDS011;2902;42.130;24.732;2023-02-01T07:31:08;9.00;;;4.30;;
5754;SDS011;2902;42.130;24.732;2023-02-01T07:33:38;13.50;;;4.33;;
5754;SDS011;2902;42.130;24.732;2023-02-01T07:36:05;14.50;;;4.70;;
5754;SDS011;2902;42.130;24.732;2023-02-01T07:38:33;5.10;;;4.70;;
5754;SDS011;2902;42.130;24.732;2023-02-01T07:41:00;9.03;;;4.77;;
5754;SDS011;2902;42.130;24.732;2023-02-01T07:43:28;8.70;;;4.77;;
5754;SDS011;2902;42.130;24.732;2023-02-01T07:45:56;7.37;;;5.17;;
5754;SDS011;2902;42.130;24.732;2023-02-01T07:48:23;7.50;;;6.40;;
5754;SDS011;2902;42.130;24.732;2023-02-01T07:50:58;12.23;;;6.30;;
5754;SDS011;2902;42.130;24.732;2023-02-01T07:53:25;6.00;;;4.83;;
5754;SDS011;2902;42.130;24.732;2023-02-01T07:55:52;5.87;;;5.37;;
5754;SDS011;2902;42.130;24.732;2023-02-01T07:58:21;30.83;;;7.40;;
5754;SDS011;2902;42.130;24.732;2023-02-01T08:00:47;11.83;;;5.27;;
5754;SDS011;2902;42.130;24.732;2023-02-01T08:03:32;4.20;;;3.90;;
5754;SDS011;2902;42.130;24.732;2023-02-01T08:06:00;15.87;;;7.97;;
5754;SDS011;2902;42.130;24.732;2023-02-01T08:08:27;20.73;;;8.07;;
5754;SDS011;2902;42.130;24.732;2023-02-01T08:10:56;11.57;;;5.37;;
5754;SDS011;2902;42.130;24.732;2023-02-01T08:13:23;37.30;;;5.80;;
5754;SDS011;2902;42.130;24.732;2023-02-01T08:15:50;5.13;;;4.10;;
5754;SDS011;2902;42.130;24.732;2023-02-01T08:18:17;6.77;;;5.23;;
5754;SDS011;2902;42.130;24.732;2023-02-01T08:20:45;4.07;;;3.73;;
5754;SDS011;2902;42.130;24.732;2023-02-01T08:23:14;4.47;;;3.90;;
5754;SDS011;2902;42.130;24.732;2023-02-01T08:25:40;5.30;;;4.90;;
5754;SDS011;2902;42.130;24.732;2023-02-01T08:28:07;40.17;;;6.90;;
5754;SDS011;2902;42.130;24.732;2023-02-01T08:30:35;5.27;;;4.80;;
5754;SDS011;2902;42.130;24.732;2023-02-01T08:33:03;7.70;;;4.10;;
5754;SDS011;2902;42.130;24.732;2023-02-01T08:35:31;8.13;;;6.43;;
5754;SDS011;2902;42.130;24.732;2023-02-01T08:37:58;5.57;;;4.57;;
5754;SDS011;2902;42.130;24.732;2023-02-01T08:40:26;3.63;;;3.33;;
5754;SDS011;2902;42.130;24.732;2023-02-01T08:42:53;10.20;;;7.30;;
5754;SDS011;2902;42.130;24.732;2023-02-01T08:45:20;5.83;;;3.53;;
5754;SDS011;2902;42.130;24.732;2023-02-01T08:47:49;5.20;;;4.63;;
5754;SDS011;2902;42.130;24.732;2023-02-01T08:50:17;7.30;;;4.30;;
5754;SDS011;2902;42.130;24.732;2023-02-01T08:52:44;6.83;;;3.70;;
5754;SDS011;2902;42.130;24.732;2023-02-01T08:55:11;7.90;;;4.23;;
5754;SDS011;2902;42.130;24.732;2023-02-01T08:57:40;5.37;;;3.50;;
5754;SDS011;2902;42.130;24.732;2023-02-01T09:00:08;67.37;;;8.37;;
5754;SDS011;2902;42.130;24.732;2023-02-01T09:02:38;4.23;;;3.93;;
5754;SDS011;2902;42.130;24.732;2023-02-01T09:05:05;6.77;;;4.23;;
5754;SDS011;2902;42.130;24.732;2023-02-01T09:07:32;9.13;;;4.00;;
5754;SDS011;2902;42.130;24.732;2023-02-01T09:10:00;8.07;;;3.67;;
5754;SDS011;2902;42.130;24.732;2023-02-01T09:12:28;4.13;;;3.73;;
5754;SDS011;2902;42.130;24.732;2023-02-01T09:14:56;4.30;;;3.90;;
5754;SDS011;2902;42.130;24.732;2023-02-01T09:17:25;7.83;;;4.27;;
5754;SDS011;2902;42.130;24.732;2023-02-01T09:19:52;9.17;;;4.77;;
5754;SDS011;2902;42.130;24.732;2023-02-01T09:22:19;4.93;;;4.27;;
5754;SDS011;2902;42.130;24.732;2023-02-01T09:24:45;7.07;;;5.70;;
5754;SDS011;2902;42.130;24.732;2023-02-01T09:27:12;21.40;;;5.03;;
5754;SDS011;2902;42.130;24.732;2023-02-01T09:29:39;4.47;;;3.10;;
5754;SDS011;2902;42.130;24.732;2023-02-01T09:32:07;11.60;;;4.50;;
5754;SDS011;2902;42.130;24.732;2023-02-01T09:34:34;5.97;;;3.60;;
5754;SDS011;2902;42.130;24.732;2023-02-01T09:37:01;5.23;;;4.20;;
5754;SDS011;2902;42.130;24.732;2023-02-01T09:39:27;7.20;;;3.63;;
5754;SDS011;2902;42.130;24.732;2023-02-01T09:41:58;10.23;;;4.10;;
5754;SDS011;2902;42.130;24.732;2023-02-01T09:44:46;15.80;;;4.27;;
5754;SDS011;2902;42.130;24.732;2023-02-01T09:47:24;14.60;;;4.83;;
5754;SDS011;2902;42.130;24.732;2023-02-01T09:49:54;14.27;;;3.27;;
5754;SDS011;2902;42.130;24.732;2023-02-01T09:52:27;11.53;;;3.00;;
5754;SDS011;2902;42.130;24.732;2023-02-01T09:54:58;31.03;;;3.83;;
5754;SDS011;2902;42.130;24.732;2023-02-01T09:57:28;8.63;;;3.47;;
5754;SDS011;2902;42.130;24.732;2023-02-01T10:00:12;14.03;;;3.40;;
5754;SDS011;2902;42.130;24.732;2023-02-01T10:02:44;7.40;;;1.73;;
5754;SDS011;2902;42.130;24.732;2023-02-01T10:05:12;16.37;;;2.90;;
5754;SDS011;2902;42.130;24.732;2023-02-01T10:07:42;30.30;;;3.43;;
5754;SDS011;2902;42.130;24.732;2023-02-01T10:10:20;14.63;;;2.83;;
5754;SDS011;2902;42.130;24.732;2023-02-01T10:16:03;6.40;;;2.97;;
5754;SDS011;2902;42.130;24.732;2023-02-01T10:18:51;2.67;;;2.37;;
5754;SDS011;2902;42.130;24.732;2023-02-01T10:21:30;3.40;;;2.83;;
5754;SDS011;2902;42.130;24.732;2023-02-01T10:24:22;10.30;;;2.90;;
5754;SDS011;2902;42.130;24.732;2023-02-01T10:27:12;56.90;;;5.57;;
5754;SDS011;2902;42.130;24.732;2023-02-01T10:29:43;3.20;;;2.10;;
5754;SDS011;2902;42.130;24.732;2023-02-01T10:32:14;6.17;;;1.60;;
5754;SDS011;2902;42.130;24.732;2023-02-01T10:34:44;81.10;;;7.60;;
5754;SDS011;2902;42.130;24.732;2023-02-01T10:37:17;8.50;;;2.20;;
5754;SDS011;2902;42.130;24.732;2023-02-01T10:39:53;11.33;;;3.07;;
5754;SDS011;2902;42.130;24.732;2023-02-01T10:42:22;12.37;;;3.50;;
5754;SDS011;2902;42.130;24.732;2023-02-01T10:44:52;5.57;;;2.60;;
5754;SDS011;2902;42.130;24.732;2023-02-01T10:47:22;8.50;;;2.50;;
5754;SDS011;2902;42.130;24.732;2023-02-01T10:49:52;15.43;;;3.37;;
5754;SDS011;2902;42.130;24.732;2023-02-01T10:52:29;7.33;;;2.37;;
5754;SDS011;2902;42.130;24.732;2023-02-01T10:58:00;3.93;;;1.83;;
5754;SDS011;2902;42.130;24.732;2023-02-01T11:00:28;9.73;;;2.13;;
5754;SDS011;2902;42.130;24.732;2023-02-01T11:03:19;12.43;;;2.87;;
5754;SDS011;2902;42.130;24.732;2023-02-01T11:05:48;24.60;;;3.50;;
5754;SDS011;2902;42.130;24.732;2023-02-01T11:08:15;2.87;;;1.33;;
5754;SDS011;2902;42.130;24.732;2023-02-01T11:10:44;8.73;;;2.60;;
5754;SDS011;2902;42.130;24.732;2023-02-01T11:13:13;15.77;;;2.47;;
5754;SDS011;2902;42.130;24.732;2023-02-01T11:15:43;29.80;;;3.63;;
5754;SDS011;2902;42.130;24.732;2023-02-01T11:18:17;5.23;;;2.67;;
5754;SDS011;2902;42.130;24.732;2023-02-01T11:20:46;3.60;;;2.23;;
5754;SDS011;2902;42.130;24.732;2023-02-01T11:23:17;5.27;;;1.93;;
5754;SDS011;2902;42.130;24.732;2023-02-01T11:25:49;8.27;;;2.20;;
5754;SDS011;2902;42.130;24.732;2023-02-01T11:28:19;38.23;;;3.17;;
5754;SDS011;2902;42.130;24.732;2023-02-01T11:30:51;9.30;;;2.20;;
5754;SDS011;2902;42.130;24.732;2023-02-01T11:33:23;2.80;;;1.73;;
5754;SDS011;2902;42.130;24.732;2023-02-01T11:35:56;19.00;;;3.03;;
5754;SDS011;2902;42.130;24.732;2023-02-01T11:38:26;18.90;;;2.77;;
5754;SDS011;2902;42.130;24.732;2023-02-01T11:40:55;5.40;;;2.13;;
5754;SDS011;2902;42.130;24.732;2023-02-01T11:43:37;37.80;;;3.60;;
5754;SDS011;2902;42.130;24.732;2023-02-01T11:46:14;17.43;;;3.13;;
5754;SDS011;2902;42.130;24.732;2023-02-01T11:48:49;4.73;;;2.27;;
5754;SDS011;2902;42.130;24.732;2023-02-01T11:51:21;2.40;;;1.97;;
5754;SDS011;2902;42.130;24.732;2023-02-01T11:54:02;2.77;;;2.00;;
5754;SDS011;2902;42.130;24.732;2023-02-01T11:56:39;3.60;;;1.83;;
5754;SDS011;2902;42.130;24.732;2023-02-01T11:59:17;5.27;;;1.70;;
5754;SDS011;2902;42.130;24.732;2023-02-01T12:01:55;2.13;;;1.57;;
5754;SDS011;2902;42.130;24.732;2023-02-01T12:04:45;3.63;;;1.50;;
5754;SDS011;2902;42.130;24.732;2023-02-01T12:07:31;40.23;;;4.00;;
5754;SDS011;2902;42.130;24.732;2023-02-01T12:10:16;1.40;;;1.33;;
5754;SDS011;2902;42.130;24.732;2023-02-01T12:12:56;5.13;;;1.80;;
5754;SDS011;2902;42.130;24.732;2023-02-01T12:15:38;8.57;;;2.23;;
5754;SDS011;2902;42.130;24.732;2023-02-01T12:21:24;6.60;;;3.10;;
5754;SDS011;2902;42.130;24.732;2023-02-01T12:24:11;14.83;;;2.40;;
5754;SDS011;2902;42.130;24.732;2023-02-01T12:26:51;12.13;;;2.33;;
5754;SDS011;2902;42.130;24.732;2023-02-01T12:29:35;2.80;;;1.83;;
5754;SDS011;2902;42.130;24.732;2023-02-01T12:32:18;10.40;;;5.13;;
5754;SDS011;2902;42.130;24.732;2023-02-01T12:34:55;9.70;;;2.70;;
5754;SDS011;2902;42.130;24.732;2023-02-01T12:37:45;7.13;;;1.93;;
5754;SDS011;2902;42.130;24.732;2023-02-01T12:40:28;1.77;;;1.60;;
5754;SDS011;2902;42.130;24.732;2023-02-01T12:43:07;2.57;;;1.73;;
5754;SDS011;2902;42.130;24.732;2023-02-01T12:45:41;5.53;;;2.10;;
5754;SDS011;2902;42.130;24.732;2023-02-01T12:48:19;1.80;;;1.70;;
5754;SDS011;2902;42.130;24.732;2023-02-01T12:50:53;8.90;;;2.90;;
5754;SDS011;2902;42.130;24.732;2023-02-01T12:53:25;3.53;;;1.70;;
5754;SDS011;2902;42.130;24.732;2023-02-01T12:55:58;2.53;;;1.60;;
5754;SDS011;2902;42.130;24.732;2023-02-01T12:58:32;1.50;;;1.40;;
5754;SDS011;2902;42.130;24.732;2023-02-01T13:01:08;4.10;;;2.67;;
5754;SDS011;2902;42.130;24.732;2023-02-01T13:03:42;5.77;;;2.67;;
5754;SDS011;2902;42.130;24.732;2023-02-01T13:06:17;2.63;;;2.00;;
5754;SDS011;2902;42.130;24.732;2023-02-01T13:08:47;4.03;;;2.50;;
5754;SDS011;2902;42.130;24.732;2023-02-01T13:11:22;4.57;;;1.90;;
5754;SDS011;2902;42.130;24.732;2023-02-01T13:13:55;8.77;;;2.30;;
5754;SDS011;2902;42.130;24.732;2023-02-01T13:16:27;10.30;;;2.67;;
5754;SDS011;2902;42.130;24.732;2023-02-01T13:18:59;2.83;;;2.30;;
5754;SDS011;2902;42.130;24.732;2023-02-01T13:21:32;4.90;;;2.50;;
5754;SDS011;2902;42.130;24.732;2023-02-01T13:24:04;2.53;;;2.33;;
5754;SDS011;2902;42.130;24.732;2023-02-01T13:26:41;4.50;;;2.07;;
5754;SDS011;2902;42.130;24.732;2023-02-01T13:29:08;2.47;;;2.27;;
5754;SDS011;2902;42.130;24.732;2023-02-01T13:31:45;3.60;;;1.93;;
5754;SDS011;2902;42.130;24.732;2023-02-01T13:34:42;7.73;;;2.20;;
5754;SDS011;2902;42.130;24.732;2023-02-01T13:37:28;38.23;;;3.53;;
5754;SDS011;2902;42.130;24.732;2023-02-01T13:40:18;2.90;;;2.30;;
5754;SDS011;2902;42.130;24.732;2023-02-01T13:42:59;4.47;;;2.20;;
5754;SDS011;2902;42.130;24.732;2023-02-01T13:45:29;2.20;;;2.10;;
5754;SDS011;2902;42.130;24.732;2023-02-01T13:47:59;16.67;;;3.17;;
5754;SDS011;2902;42.130;24.732;2023-02-01T13:50:29;4.30;;;2.43;;
5754;SDS011;2902;42.130;24.732;2023-02-01T13:53:02;6.83;;;2.70;;
5754;SDS011;2902;42.130;24.732;2023-02-01T13:55:32;2.70;;;2.50;;
5754;SDS011;2902;42.130;24.732;2023-02-01T13:58:04;3.83;;;2.27;;
5754;SDS011;2902;42.130;24.732;2023-02-01T14:00:42;4.83;;;2.60;;
5754;SDS011;2902;42.130;24.732;2023-02-01T14:06:15;2.70;;;1.50;;
5754;SDS011;2902;42.130;24.732;2023-02-01T14:11:47;9.33;;;2.27;;
5754;SDS011;2902;42.130;24.732;2023-02-01T14:23:17;4.97;;;2.17;;
5754;SDS011;2902;42.130;24.732;2023-02-01T14:25:48;3.13;;;1.97;;
5754;SDS011;2902;42.130;24.732;2023-02-01T14:28:38;1.93;;;1.70;;
5754;SDS011;2902;42.130;24.732;2023-02-01T14:31:18;11.40;;;2.07;;
5754;SDS011;2902;42.130;24.732;2023-02-01T14:34:14;3.80;;;2.00;;
5754;SDS011;2902;42.130;24.732;2023-02-01T14:36:45;7.43;;;2.30;;
5754;SDS011;2902;42.130;24.732;2023-02-01T14:39:29;1.90;;;1.80;;
5754;SDS011;2902;42.130;24.732;2023-02-01T14:42:01;3.87;;;2.10;;
5754;SDS011;2902;42.130;24.732;2023-02-01T14:44:35;3.10;;;2.00;;
5754;SDS011;2902;42.130;24.732;2023-02-01T14:47:05;2.27;;;2.07;;
5754;SDS011;2902;42.130;24.732;2023-02-01T14:49:36;9.50;;;3.10;;
5754;SDS011;2902;42.130;24.732;2023-02-01T14:52:09;3.50;;;2.40;;
5754;SDS011;2902;42.130;24.732;2023-02-01T14:54:40;3.57;;;1.90;;
5754;SDS011;2902;42.130;24.732;2023-02-01T14:57:10;3.73;;;2.90;;
5754;SDS011;2902;42.130;24.732;2023-02-01T14:59:42;2.57;;;2.37;;
5754;SDS011;2902;42.130;24.732;2023-02-01T15:02:16;15.00;;;6.83;;
5754;SDS011;2902;42.130;24.732;2023-02-01T15:04:47;6.43;;;4.07;;
5754;SDS011;2902;42.130;24.732;2023-02-01T15:07:20;4.77;;;3.23;;
5754;SDS011;2902;42.130;24.732;2023-02-01T15:09:49;30.40;;;4.43;;
5754;SDS011;2902;42.130;24.732;2023-02-01T15:12:18;4.83;;;3.17;;
5754;SDS011;2902;42.130;24.732;2023-02-01T15:15:03;4.77;;;3.33;;
5754;SDS011;2902;42.130;24.732;2023-02-01T15:17:38;3.67;;;2.37;;
5754;SDS011;2902;42.130;24.732;2023-02-01T15:20:12;3.33;;;2.07;;
5754;SDS011;2902;42.130;24.732;2023-02-01T15:22:40;11.33;;;6.77;;
5754;SDS011;2902;42.130;24.732;2023-02-01T15:25:18;5.47;;;3.70;;
5754;SDS011;2902;42.130;24.732;2023-02-01T15:27:46;6.10;;;3.30;;
5754;SDS011;2902;42.130;24.732;2023-02-01T15:30:16;12.47;;;3.50;;
5754;SDS011;2902;42.130;24.732;2023-02-01T15:32:48;6.20;;;2.93;;
5754;SDS011;2902;42.130;24.732;2023-02-01T15:38:18;4.00;;;3.70;;
5754;SDS011;2902;42.130;24.732;2023-02-01T15:40:57;7.57;;;6.80;;
5754;SDS011;2902;42.130;24.732;2023-02-01T15:43:26;7.70;;;5.83;;
5754;SDS011;2902;42.130;24.732;2023-02-01T15:45:55;11.43;;;7.93;;
5754;SDS011;2902;42.130;24.732;2023-02-01T15:48:25;16.17;;;9.80;;
5754;SDS011;2902;42.130;24.732;2023-02-01T15:50:53;16.60;;;9.30;;
5754;SDS011;2902;42.130;24.732;2023-02-01T15:53:22;17.13;;;11.00;;
5754;SDS011;2902;42.130;24.732;2023-02-01T15:55:55;38.43;;;18.43;;